Time;durP1;ratioP1;P1;durP2;ratioP2;P2;SDS_P1;SDS_P2;PMS_P1;PMS_P2;Temp;Humidity;BMP_temperature;BMP_pressure;BME280_temperature;BME280_humidity;BME280_pressure;Samples;Min_cycle;Max_cycle;Signal;HPM_P1;HPM_P2
2022/07/25 00:00:03;;;;;;;0.30;0.30;;;20.90;99.90;;;;;;5111069;28;20093;-83
2022/07/25 00:02:29;;;;;;;0.28;0.20;;;20.90;99.90;;;;;;5093886;28;20496;-83
2022/07/25 00:04:56;;;;;;;0.30;0.30;;;20.90;99.90;;;;;;5110156;28;20047;-83
2022/07/25 00:07:23;;;;;;;0.25;0.15;;;20.90;99.90;;;;;;5110247;28;20200;-83
2022/07/25 00:09:49;;;;;;;0.52;0.35;;;20.90;99.90;;;;;;5094119;28;20040;-83
2022/07/25 00:12:16;;;;;;;0.30;0.20;;;20.80;99.90;;;;;;5094144;28;20039;-83
2022/07/25 00:14:43;;;;;;;0.30;0.30;;;20.80;99.90;;;;;;5103953;28;20511;-83
2022/07/25 00:17:10;;;;;;;0.28;0.28;;;20.80;99.90;;;;;;5114177;28;20446;-82
2022/07/25 00:19:38;;;;;;;0.35;0.30;;;20.80;99.90;;;;;;5113516;28;20046;-83
2022/07/25 00:22:05;;;;;;;0.40;0.40;;;20.80;99.90;;;;;;5114046;28;20094;-83
2022/07/25 00:24:32;;;;;;;0.88;0.50;;;20.80;99.90;;;;;;5130393;28;20075;-83
2022/07/25 00:26:58;;;;;;;0.60;0.30;;;20.80;99.90;;;;;;5164644;27;20028;-83
2022/07/25 00:29:25;;;;;;;0.77;0.50;;;20.80;99.90;;;;;;5130181;28;20408;-83
2022/07/25 00:31:52;;;;;;;0.50;0.50;;;20.80;99.90;;;;;;5164746;27;20119;-82
2022/07/25 00:34:18;;;;;;;0.43;0.22;;;20.80;99.90;;;;;;5147649;28;20077;-83
2022/07/25 00:36:45;;;;;;;0.32;0.30;;;20.80;99.90;;;;;;5130057;28;20154;-83
2022/07/25 00:39:12;;;;;;;0.95;0.60;;;20.80;99.90;;;;;;5130670;28;20046;-83
2022/07/25 00:41:39;;;;;;;2.88;0.73;;;20.70;99.90;;;;;;5146905;28;20059;-83
2022/07/25 00:44:05;;;;;;;0.73;0.60;;;20.70;99.90;;;;;;5130399;28;20056;-83
2022/07/25 00:46:32;;;;;;;0.35;0.30;;;20.70;99.90;;;;;;5130171;28;20074;-82
2022/07/25 00:48:59;;;;;;;0.95;0.50;;;20.70;99.90;;;;;;5147137;28;20079;-83
2022/07/25 00:51:26;;;;;;;0.90;0.70;;;20.70;99.90;;;;;;5146870;28;20047;-83
2022/07/25 00:53:53;;;;;;;0.85;0.57;;;20.70;99.90;;;;;;5147288;28;20035;-83
2022/07/25 00:56:19;;;;;;;0.82;0.60;;;20.70;99.90;;;;;;5147422;28;20533;-83
2022/07/25 00:58:46;;;;;;;0.90;0.60;;;20.70;99.90;;;;;;5164254;27;20075;-83
2022/07/25 01:01:13;;;;;;;1.60;0.68;;;20.70;99.90;;;;;;5130110;28;20509;-83
2022/07/25 01:03:40;;;;;;;1.20;0.80;;;20.70;99.90;;;;;;5163168;27;20047;-83
2022/07/25 01:06:07;;;;;;;1.38;0.85;;;20.70;99.90;;;;;;5146996;28;20134;-83
2022/07/25 01:08:34;;;;;;;0.57;0.57;;;20.70;99.90;;;;;;5163842;27;20520;-82
2022/07/25 01:11:01;;;;;;;3.95;0.73;;;20.70;99.90;;;;;;5146982;28;20511;-83
2022/07/25 01:13:32;;;;;;;0.82;0.65;;;20.60;99.90;;;;;;5163823;28;20499;-82
2022/07/25 01:15:59;;;;;;;1.10;0.73;;;20.70;99.90;;;;;;5147227;28;20047;-83
2022/07/25 01:18:25;;;;;;;0.77;0.57;;;20.60;99.90;;;;;;5164344;27;20409;-83
2022/07/25 01:20:52;;;;;;;0.70;0.60;;;20.60;99.90;;;;;;5130319;28;20044;-83
2022/07/25 01:23:19;;;;;;;0.82;0.70;;;20.60;99.90;;;;;;5130061;28;20079;-83
2022/07/25 01:25:45;;;;;;;1.17;0.75;;;20.50;99.90;;;;;;5129930;28;20066;-82
2022/07/25 01:28:12;;;;;;;1.42;0.85;;;20.50;99.90;;;;;;5129976;28;20118;-83
2022/07/25 01:30:39;;;;;;;1.23;0.70;;;20.50;99.90;;;;;;5163709;28;20069;-83
2022/07/25 01:33:05;;;;;;;0.73;0.60;;;20.50;99.90;;;;;;5146741;28;20047;-82
2022/07/25 01:35:32;;;;;;;1.40;0.80;;;20.50;99.90;;;;;;5163700;28;20031;-83
2022/07/25 01:37:59;;;;;;;1.08;0.77;;;20.40;99.90;;;;;;5129992;28;20039;-83
2022/07/25 01:40:26;;;;;;;1.40;0.80;;;20.40;99.90;;;;;;5146874;28;20083;-83
2022/07/25 01:42:52;;;;;;;0.90;0.70;;;20.40;99.90;;;;;;5129283;28;20540;-83
2022/07/25 01:45:19;;;;;;;0.80;0.55;;;20.50;99.90;;;;;;5146619;28;20039;-83
2022/07/25 01:47:46;;;;;;;1.45;0.77;;;20.40;99.90;;;;;;5128633;28;20028;-83
2022/07/25 01:50:13;;;;;;;1.20;0.73;;;20.40;99.90;;;;;;5129322;28;20134;-83
2022/07/25 01:52:43;;;;;;;0.95;0.70;;;20.30;99.90;;;;;;5129139;28;20044;-83
2022/07/25 01:55:10;;;;;;;1.15;0.85;;;20.30;99.90;;;;;;5146241;28;20035;-83
2022/07/25 01:57:36;;;;;;;1.13;0.70;;;20.30;99.90;;;;;;5146730;28;20039;-83
2022/07/25 02:00:06;;;;;;;1.42;1.00;;;20.20;99.90;;;;;;5163616;28;20184;-83
2022/07/25 02:02:33;;;;;;;1.33;0.80;;;20.20;99.90;;;;;;5145896;28;20039;-83
2022/07/25 02:04:59;;;;;;;1.30;0.80;;;20.20;99.90;;;;;;5129375;28;20105;-83
2022/07/25 02:07:26;;;;;;;1.25;0.80;;;20.10;99.90;;;;;;5146129;28;20043;-83
2022/07/25 02:09:53;;;;;;;0.50;0.47;;;20.10;99.90;;;;;;5146085;28;20101;-83
2022/07/25 02:12:19;;;;;;;1.25;0.82;;;20.00;99.90;;;;;;5129551;28;20036;-83
2022/07/25 02:14:46;;;;;;;2.38;0.85;;;20.00;99.90;;;;;;5141508;28;20396;-83
2022/07/25 02:17:13;;;;;;;0.75;0.60;;;19.90;99.90;;;;;;5146483;28;20519;-83
2022/07/25 02:19:39;;;;;;;1.42;0.88;;;19.90;99.90;;;;;;5149071;27;20047;-83
2022/07/25 02:22:06;;;;;;;1.30;0.95;;;19.80;99.90;;;;;;5125382;28;20097;-83
2022/07/25 02:24:33;;;;;;;0.55;0.52;;;19.80;99.90;;;;;;5112423;28;20044;-83
2022/07/25 02:26:59;;;;;;;0.93;0.57;;;19.70;99.90;;;;;;5149741;28;20078;-83
2022/07/25 02:29:26;;;;;;;0.98;0.63;;;19.70;99.90;;;;;;5146635;28;20040;-83
2022/07/25 02:31:53;;;;;;;1.27;0.75;;;19.70;99.90;;;;;;5155365;27;20039;-83
2022/07/25 02:34:19;;;;;;;1.48;0.90;;;19.70;99.90;;;;;;5149965;28;20043;-83
2022/07/25 02:36:46;;;;;;;1.10;1.00;;;19.60;99.90;;;;;;5149353;28;20123;-83
2022/07/25 02:39:13;;;;;;;1.60;0.93;;;19.60;99.90;;;;;;5129083;28;20044;-83
2022/07/25 02:41:40;;;;;;;0.70;0.57;;;19.60;99.90;;;;;;5129039;28;20194;-83
2022/07/25 02:44:06;;;;;;;1.10;0.73;;;19.60;99.90;;;;;;5128853;28;20044;-83
2022/07/25 02:46:33;;;;;;;1.23;0.80;;;19.60;99.90;;;;;;5128795;28;20039;-83
2022/07/25 02:49:00;;;;;;;1.20;0.60;;;19.60;99.90;;;;;;5111750;28;20044;-83
2022/07/25 02:51:27;;;;;;;0.73;0.60;;;19.50;99.90;;;;;;5114014;28;20040;-83
2022/07/25 02:53:54;;;;;;;0.90;0.65;;;19.60;99.90;;;;;;5115778;28;20047;-83
2022/07/25 02:56:20;;;;;;;1.30;0.70;;;19.50;99.90;;;;;;5115849;28;20698;-83
2022/07/25 02:58:47;;;;;;;1.00;0.80;;;19.50;99.90;;;;;;5115353;28;20549;-83
2022/07/25 03:01:14;;;;;;;1.25;0.90;;;19.40;99.90;;;;;;5115152;28;20044;-82
2022/07/25 03:03:40;;;;;;;1.20;0.77;;;19.40;99.90;;;;;;5148875;28;20138;-83
2022/07/25 03:06:07;;;;;;;0.63;0.50;;;19.30;99.90;;;;;;5132463;28;20459;-83
2022/07/25 03:08:34;;;;;;;1.48;0.90;;;19.30;99.90;;;;;;5166689;27;20396;-83
2022/07/25 03:11:01;;;;;;;0.98;0.70;;;19.30;99.90;;;;;;5148736;28;20081;-83
2022/07/25 03:13:27;;;;;;;1.15;0.80;;;19.30;99.90;;;;;;5149095;28;20069;-83
2022/07/25 03:15:54;;;;;;;0.90;0.70;;;19.30;99.90;;;;;;5148738;28;20047;-84
2022/07/25 03:18:21;;;;;;;1.17;0.70;;;19.20;99.90;;;;;;5148992;28;20049;-84
2022/07/25 03:20:47;;;;;;;0.80;0.63;;;19.20;99.90;;;;;;5148965;28;20048;-83
2022/07/25 03:23:14;;;;;;;1.15;0.63;;;19.20;99.90;;;;;;5131515;28;20404;-83
2022/07/25 03:25:40;;;;;;;1.20;0.80;;;19.20;99.90;;;;;;5148528;28;20094;-84
2022/07/25 03:28:07;;;;;;;1.33;0.80;;;19.20;99.90;;;;;;5147370;28;20082;-84
2022/07/25 03:30:34;;;;;;;1.52;0.90;;;19.20;99.90;;;;;;5131333;28;20040;-83
2022/07/25 03:33:01;;;;;;;1.35;0.95;;;19.20;99.90;;;;;;5164485;27;20027;-84
2022/07/25 03:35:28;;;;;;;1.15;0.70;;;19.20;99.90;;;;;;5131497;28;20078;-83
2022/07/25 03:37:54;;;;;;;1.35;0.95;;;19.30;99.90;;;;;;5148374;28;20369;-84
2022/07/25 03:40:21;;;;;;;1.75;0.77;;;19.30;99.90;;;;;;5131421;28;20404;-84
2022/07/25 03:42:48;;;;;;;0.52;0.52;;;19.30;99.90;;;;;;5130749;28;20104;-83
2022/07/25 03:45:15;;;;;;;1.20;0.85;;;19.30;99.90;;;;;;5130977;28;20122;-84
2022/07/25 03:47:42;;;;;;;1.10;0.57;;;19.30;99.90;;;;;;5131529;28;20050;-83
2022/07/25 03:50:09;;;;;;;0.95;0.70;;;19.30;99.90;;;;;;5165452;27;20040;-84
2022/07/25 03:52:37;;;;;;;1.20;0.70;;;19.30;99.90;;;;;;5131215;28;20044;-83
2022/07/25 03:55:06;;;;;;;0.90;0.70;;;19.30;99.90;;;;;;5165087;27;20046;-83
2022/07/25 03:57:33;;;;;;;0.73;0.60;;;19.30;99.90;;;;;;5147844;28;20043;-84
2022/07/25 04:00:00;;;;;;;1.92;0.90;;;19.30;99.90;;;;;;5147710;28;20047;-83
2022/07/25 04:02:26;;;;;;;1.13;0.60;;;19.30;99.90;;;;;;5147803;28;20400;-83
2022/07/25 04:04:53;;;;;;;1.15;0.73;;;19.30;99.90;;;;;;5130571;28;20043;-83
2022/07/25 04:07:20;;;;;;;1.27;0.80;;;19.30;99.90;;;;;;5130887;28;20484;-83
2022/07/25 04:09:47;;;;;;;1.55;0.88;;;19.40;99.90;;;;;;5147810;28;20039;-83
2022/07/25 04:12:13;;;;;;;0.98;0.40;;;19.50;99.90;;;;;;5130443;28;20063;-83
2022/07/25 04:14:40;;;;;;;0.73;0.60;;;19.50;99.90;;;;;;5130878;28;20515;-83
2022/07/25 04:17:07;;;;;;;1.77;0.95;;;19.50;99.90;;;;;;5147537;28;20437;-83
2022/07/25 04:19:33;;;;;;;1.00;0.70;;;19.50;99.90;;;;;;5147714;28;20039;-83
2022/07/25 04:22:00;;;;;;;1.17;0.70;;;19.50;99.90;;;;;;5130288;28;20039;-83
2022/07/25 04:24:26;;;;;;;0.75;0.50;;;19.60;99.90;;;;;;5147259;28;20035;-83
2022/07/25 04:26:53;;;;;;;1.02;0.73;;;19.60;99.90;;;;;;5164300;27;20031;-83
2022/07/25 04:29:20;;;;;;;1.83;0.90;;;19.60;99.90;;;;;;5147735;28;20031;-83
2022/07/25 04:31:47;;;;;;;1.58;1.00;;;19.60;99.90;;;;;;5130781;28;20434;-83
2022/07/25 04:34:13;;;;;;;0.85;0.70;;;19.60;99.90;;;;;;5147120;28;20443;-83
2022/07/25 04:36:41;;;;;;;1.20;0.73;;;19.60;99.90;;;;;;5147452;28;20082;-84
2022/07/25 04:39:08;;;;;;;1.40;0.88;;;19.60;99.90;;;;;;5164115;27;20109;-83
2022/07/25 04:41:34;;;;;;;1.35;0.77;;;19.60;99.90;;;;;;5130011;28;20055;-83
2022/07/25 04:44:01;;;;;;;1.20;0.80;;;19.60;99.90;;;;;;5146564;28;20045;-83
2022/07/25 04:46:28;;;;;;;0.60;0.50;;;19.70;99.90;;;;;;5147107;28;20035;-83
2022/07/25 04:48:54;;;;;;;1.73;0.80;;;19.70;99.90;;;;;;5147011;28;20031;-83
2022/07/25 04:51:21;;;;;;;1.13;0.80;;;19.80;99.90;;;;;;5147275;28;20091;-83
2022/07/25 04:53:48;;;;;;;0.73;0.55;;;19.90;99.90;;;;;;5147075;28;20046;-83
2022/07/25 04:56:14;;;;;;;1.13;0.68;;;19.90;99.90;;;;;;5129759;28;20040;-83
2022/07/25 04:58:41;;;;;;;1.13;0.73;;;19.90;99.90;;;;;;5163861;27;20043;-83
2022/07/25 05:01:08;;;;;;;1.20;0.75;;;20.00;99.90;;;;;;5146771;28;20039;-83
2022/07/25 05:03:35;;;;;;;1.77;1.00;;;20.10;99.90;;;;;;5164182;27;20492;-83
2022/07/25 05:06:01;;;;;;;1.52;0.95;;;20.30;99.90;;;;;;5163536;27;20032;-83
2022/07/25 05:08:29;;;;;;;1.10;0.70;;;20.40;99.90;;;;;;5130179;28;20035;-83
2022/07/25 05:10:56;;;;;;;1.48;0.70;;;20.50;99.90;;;;;;5146791;28;20039;-83
2022/07/25 05:13:22;;;;;;;1.40;0.88;;;20.60;99.90;;;;;;5146709;28;20040;-83
2022/07/25 05:15:49;;;;;;;1.45;0.80;;;20.70;99.90;;;;;;5129691;28;20096;-83
2022/07/25 05:18:16;;;;;;;1.33;0.73;;;20.70;99.90;;;;;;5129623;28;20079;-84
2022/07/25 05:20:43;;;;;;;2.10;1.10;;;20.70;99.90;;;;;;5146911;28;20044;-83
2022/07/25 05:23:09;;;;;;;0.95;0.70;;;20.80;99.90;;;;;;5146418;28;20071;-83
2022/07/25 05:25:36;;;;;;;1.30;0.88;;;20.80;99.90;;;;;;5146846;28;20047;-84
2022/07/25 05:28:03;;;;;;;1.63;1.00;;;20.90;99.90;;;;;;5146315;28;20071;-83
2022/07/25 05:30:30;;;;;;;1.05;0.70;;;20.90;99.90;;;;;;5163603;28;20039;-83
2022/07/25 05:32:56;;;;;;;1.13;0.80;;;20.90;99.90;;;;;;5163818;28;20035;-84
2022/07/25 05:35:23;;;;;;;1.40;0.80;;;21.00;99.90;;;;;;5146590;28;20035;-83
2022/07/25 05:37:50;;;;;;;1.38;0.90;;;21.10;99.90;;;;;;5146465;28;20039;-83
2022/07/25 05:40:18;;;;;;;1.50;0.95;;;21.20;99.90;;;;;;5128983;28;20039;-83
2022/07/25 05:42:44;;;;;;;1.25;0.85;;;21.30;99.90;;;;;;5129637;28;20047;-83
2022/07/25 05:45:11;;;;;;;1.05;0.63;;;21.30;99.90;;;;;;5145940;28;20050;-83
2022/07/25 05:47:38;;;;;;;1.63;0.82;;;21.40;99.90;;;;;;5164064;27;20039;-83
2022/07/25 05:50:05;;;;;;;1.63;1.05;;;21.50;99.90;;;;;;5146604;28;20492;-83
2022/07/25 05:52:32;;;;;;;1.02;0.73;;;21.50;99.90;;;;;;5150811;28;20047;-83
2022/07/25 05:54:58;;;;;;;1.42;0.88;;;21.60;99.90;;;;;;5134042;28;20108;-84
2022/07/25 05:57:25;;;;;;;1.48;0.80;;;21.60;99.90;;;;;;5133296;28;20681;-84
2022/07/25 05:59:51;;;;;;;1.58;0.82;;;21.70;99.90;;;;;;5167294;27;20089;-84
2022/07/25 06:02:18;;;;;;;1.02;0.70;;;21.80;99.90;;;;;;5135652;28;20044;-83
2022/07/25 06:04:45;;;;;;;2.28;1.15;;;21.80;99.90;;;;;;5120615;28;20035;-83
2022/07/25 06:07:11;;;;;;;1.67;1.00;;;21.90;99.90;;;;;;5115566;28;20051;-83
2022/07/25 06:09:38;;;;;;;1.40;0.82;;;22.00;99.90;;;;;;5118683;28;20455;-84
2022/07/25 06:12:05;;;;;;;1.45;0.95;;;22.10;99.90;;;;;;5102108;28;20481;-83
2022/07/25 06:14:32;;;;;;;1.20;0.80;;;22.10;99.90;;;;;;5145151;28;20068;-84
2022/07/25 06:16:59;;;;;;;1.55;0.88;;;22.30;99.90;;;;;;5124583;28;20072;-83
2022/07/25 06:19:26;;;;;;;1.25;0.73;;;22.40;99.90;;;;;;5151123;27;20079;-83
2022/07/25 06:21:52;;;;;;;1.73;0.90;;;22.40;99.90;;;;;;5146426;28;20084;-83
2022/07/25 06:24:19;;;;;;;1.05;0.70;;;22.40;99.90;;;;;;5121530;28;20059;-83
2022/07/25 06:26:46;;;;;;;1.15;0.70;;;22.40;99.90;;;;;;5099292;28;20040;-83
2022/07/25 06:29:13;;;;;;;1.27;0.88;;;22.50;99.90;;;;;;5149939;28;20047;-83
2022/07/25 06:31:39;;;;;;;1.08;0.75;;;22.50;99.90;;;;;;5149623;28;20031;-85
2022/07/25 06:34:06;;;;;;;1.73;0.88;;;22.50;99.90;;;;;;5148414;27;20047;-86
2022/07/25 06:36:33;;;;;;;0.82;0.55;;;22.60;99.90;;;;;;5120730;28;20118;-88
2022/07/25 06:39:01;;;;;;;1.33;0.70;;;22.60;99.90;;;;;;5150367;28;20072;-86
2022/07/25 06:41:27;;;;;;;1.73;1.10;;;22.70;99.90;;;;;;5166707;27;20056;-89
2022/07/25 06:43:54;;;;;;;1.23;0.88;;;22.70;99.90;;;;;;5128033;28;20047;-88
2022/07/25 06:46:21;;;;;;;0.98;0.63;;;22.80;99.90;;;;;;5129670;28;20043;-89
2022/07/25 06:48:48;;;;;;;1.33;0.82;;;22.90;99.90;;;;;;5148930;28;20040;-89
2022/07/25 06:51:14;;;;;;;0.88;0.60;;;23.00;99.90;;;;;;5134173;28;20122;-87
2022/07/25 06:53:41;;;;;;;1.08;0.70;;;23.00;99.90;;;;;;5149407;28;20048;-89
2022/07/25 06:56:08;;;;;;;1.40;0.90;;;23.00;99.90;;;;;;5139301;27;20399;-87
2022/07/25 06:58:34;;;;;;;1.23;0.80;;;23.10;99.90;;;;;;5132178;28;20043;-85
2022/07/25 07:01:01;;;;;;;1.65;1.00;;;23.00;99.90;;;;;;5132315;28;20043;-87
2022/07/25 07:03:28;;;;;;;1.75;0.70;;;23.10;99.90;;;;;;5113928;28;20046;-85
2022/07/25 07:05:54;;;;;;;1.13;0.75;;;23.10;99.90;;;;;;5166429;27;20047;-85
2022/07/25 07:08:21;;;;;;;1.10;0.70;;;23.20;99.90;;;;;;5132109;28;20035;-85
2022/07/25 07:10:48;;;;;;;1.42;0.90;;;23.30;99.90;;;;;;5166859;27;20391;-86
2022/07/25 07:13:17;;;;;;;1.58;0.95;;;23.40;99.90;;;;;;5137944;28;20077;-85
2022/07/25 07:15:48;;;;;;;1.23;0.60;;;23.40;99.90;;;;;;5116765;28;20596;-84
2022/07/25 07:18:18;;;;;;;1.58;0.90;;;23.50;99.90;;;;;;5111945;28;20040;-85
2022/07/25 07:20:46;;;;;;;1.55;0.75;;;23.60;99.90;;;;;;5106410;28;20040;-86
2022/07/25 07:23:13;;;;;;;1.92;1.00;;;23.70;99.90;;;;;;5118144;28;20043;-88
2022/07/25 07:25:39;;;;;;;1.42;0.70;;;23.90;99.90;;;;;;5148293;28;20496;-85
2022/07/25 07:28:06;;;;;;;1.58;1.08;;;24.00;99.90;;;;;;5165935;27;20062;-87
2022/07/25 07:30:33;;;;;;;1.20;0.77;;;24.20;99.90;;;;;;5149021;28;20044;-88
2022/07/25 07:33:03;;;;;;;1.40;0.80;;;24.30;99.90;;;;;;5145747;28;20043;-87
2022/07/25 07:35:29;;;;;;;0.95;0.65;;;24.50;99.90;;;;;;5095171;28;20036;-85
2022/07/25 07:37:56;;;;;;;2.22;1.10;;;24.60;99.90;;;;;;5128069;28;20044;-85
2022/07/25 07:40:25;;;;;;;0.68;0.52;;;24.80;99.90;;;;;;5094100;28;20519;-83
2022/07/25 07:42:52;;;;;;;1.02;0.70;;;24.90;99.90;;;;;;5153757;27;20031;-85
2022/07/25 07:45:22;;;;;;;1.20;0.80;;;25.00;99.90;;;;;;5137911;28;20402;-85
2022/07/25 07:47:51;;;;;;;0.82;0.60;;;25.10;99.90;;;;;;5111277;28;20036;-87
2022/07/25 07:50:21;;;;;;;1.38;0.93;;;25.20;99.90;;;;;;5110974;28;20076;-85
2022/07/25 07:52:48;;;;;;;1.63;0.93;;;25.30;99.90;;;;;;5110971;28;20040;-84
2022/07/25 07:58:01;;;;;;;1.50;0.90;;;25.20;99.90;;;;;;5172157;27;20043;-87
2022/07/25 08:00:34;;;;;;;1.60;0.95;;;25.20;99.90;;;;;;5141674;28;20036;-86
2022/07/25 08:03:02;;;;;;;1.33;0.77;;;25.30;99.90;;;;;;5094937;28;20410;-83
2022/07/25 08:05:37;;;;;;;1.20;0.90;;;25.30;99.90;;;;;;5127207;28;20043;-86
2022/07/25 08:08:06;;;;;;;1.63;0.77;;;25.40;99.90;;;;;;5127464;28;20511;-85
2022/07/25 08:10:35;;;;;;;1.75;0.90;;;25.50;99.90;;;;;;5137389;28;20089;-86
2022/07/25 08:13:11;;;;;;;1.40;0.98;;;25.60;99.90;;;;;;5122030;28;20035;-86
2022/07/25 08:15:39;;;;;;;1.65;0.90;;;25.50;99.90;;;;;;5147864;28;20043;-84
2022/07/25 08:18:05;;;;;;;1.60;1.00;;;25.60;99.90;;;;;;5127696;28;20044;-82
2022/07/25 08:20:32;;;;;;;2.40;1.20;;;25.70;99.90;;;;;;5126531;28;20036;-79
2022/07/25 08:23:01;;;;;;;1.58;1.02;;;25.70;99.90;;;;;;5161052;27;20036;-85
2022/07/25 08:25:28;;;;;;;1.65;0.95;;;25.80;99.90;;;;;;5163667;27;20040;-83
2022/07/25 08:27:54;;;;;;;1.88;1.10;;;25.80;99.90;;;;;;5147556;28;20036;-84
2022/07/25 08:30:21;;;;;;;2.13;1.05;;;26.00;99.90;;;;;;5127072;28;20035;-83
2022/07/25 08:32:54;;;;;;;1.23;0.93;;;26.10;99.90;;;;;;5096008;28;20028;-84
2022/07/25 08:35:23;;;;;;;0.77;0.70;;;26.20;99.90;;;;;;5119470;28;20044;-84
2022/07/25 08:37:50;;;;;;;1.27;0.77;;;26.40;99.90;;;;;;5115694;28;20039;-86
2022/07/25 08:40:18;;;;;;;1.08;0.75;;;26.40;99.90;;;;;;5128905;28;20043;-84
2022/07/25 08:42:45;;;;;;;1.20;0.75;;;26.20;99.90;;;;;;5096122;28;20047;-84
2022/07/25 08:45:15;;;;;;;1.35;0.77;;;26.00;99.90;;;;;;5129246;28;20047;-86
2022/07/25 08:47:42;;;;;;;1.70;1.00;;;25.80;99.90;;;;;;5146969;28;20039;-84
2022/07/25 08:50:12;;;;;;;1.15;0.70;;;25.50;99.90;;;;;;5129796;28;20035;-86
2022/07/25 08:52:41;;;;;;;1.70;1.13;;;25.50;99.90;;;;;;5129249;28;20035;-84
2022/07/25 08:55:14;;;;;;;1.35;0.80;;;25.50;99.90;;;;;;5129775;28;20047;-88
2022/07/25 08:57:44;;;;;;;1.25;0.80;;;25.40;99.90;;;;;;5127724;28;20032;-85
2022/07/25 09:00:15;;;;;;;1.73;0.93;;;25.50;99.90;;;;;;5126820;28;20048;-90
2022/07/25 09:02:41;;;;;;;1.38;0.70;;;25.50;99.90;;;;;;5115841;28;20048;-86
2022/07/25 09:05:08;;;;;;;1.80;1.00;;;25.70;99.90;;;;;;5109252;28;20412;-87
2022/07/25 09:07:37;;;;;;;1.13;0.70;;;25.70;99.90;;;;;;5092926;28;20067;-92
2022/07/25 09:10:16;;;;;;;1.17;0.80;;;25.80;99.90;;;;;;5163000;27;20071;-90
2022/07/25 09:12:52;;;;;;;1.13;0.77;;;25.80;99.90;;;;;;5129897;28;20027;-90
2022/07/25 09:15:40;;;;;;;1.00;0.80;;;25.70;99.90;;;;;;5164048;27;20496;-87
2022/07/25 09:18:11;;;;;;;0.88;0.65;;;25.40;99.90;;;;;;5130726;28;20035;-92
2022/07/25 09:20:46;;;;;;;0.90;0.70;;;25.30;99.90;;;;;;5147118;28;20075;-91
2022/07/25 09:23:14;;;;;;;;;;;25.10;99.90;;;;;;5130755;28;20105;-87
2022/07/25 09:25:41;;;;;;;0.88;0.60;;;25.00;99.90;;;;;;5131530;28;19919;-90
2022/07/25 09:28:12;;;;;;;0.35;0.32;;;24.90;99.90;;;;;;5168391;27;20450;-88
2022/07/25 09:30:40;;;;;;;1.55;0.80;;;24.80;99.90;;;;;;5168149;27;20101;-89
2022/07/25 09:33:07;;;;;;;0.98;0.55;;;24.80;99.90;;;;;;5134826;28;20036;-88
2022/07/25 09:35:37;;;;;;;1.27;0.80;;;24.70;99.90;;;;;;5116898;28;20047;-88
2022/07/25 09:38:12;;;;;;;1.38;0.77;;;24.70;99.90;;;;;;5133679;28;20047;-86
2022/07/25 09:40:39;;;;;;;0.90;0.80;;;24.70;99.90;;;;;;5150165;27;20524;-89
2022/07/25 09:43:06;;;;;;;0.85;0.70;;;24.80;99.90;;;;;;5145032;28;20043;-87
2022/07/25 09:45:33;;;;;;;1.20;0.70;;;24.70;99.90;;;;;;5139167;28;20070;-89
2022/07/25 09:48:03;;;;;;;0.85;0.80;;;24.70;99.90;;;;;;5128929;28;20064;-90
2022/07/25 09:50:32;;;;;;;0.63;0.60;;;24.60;99.90;;;;;;5134191;28;20047;-87
2022/07/25 09:53:01;;;;;;;0.52;0.40;;;24.70;99.90;;;;;;5134759;28;20043;-91
2022/07/25 09:55:29;;;;;;;1.13;0.80;;;24.70;99.90;;;;;;5168213;27;20031;-91
2022/07/25 09:57:55;;;;;;;0.90;0.60;;;24.90;99.90;;;;;;5167878;27;20047;-87
2022/07/25 10:00:25;;;;;;;1.30;0.70;;;25.00;99.90;;;;;;5134144;28;20114;-88
2022/07/25 10:03:09;;;;;;;0.88;0.65;;;25.00;99.90;;;;;;5133755;28;20043;-87
2022/07/25 10:05:46;;;;;;;1.15;0.85;;;25.30;99.90;;;;;;5133410;28;20047;-91
2022/07/25 10:08:13;;;;;;;1.42;0.80;;;25.30;99.90;;;;;;5168284;27;20040;-92
2022/07/25 10:10:41;;;;;;;1.30;0.90;;;25.50;99.90;;;;;;5150975;28;20385;-93
2022/07/25 10:13:10;;;;;;;1.05;0.80;;;25.50;99.90;;;;;;5138496;28;20035;-87
2022/07/25 10:15:48;;;;;;;0.75;0.60;;;25.40;99.90;;;;;;5154151;27;20076;-91
2022/07/25 10:18:18;;;;;;;0.80;0.60;;;25.20;99.90;;;;;;5148807;28;20046;-92
2022/07/25 10:20:46;;;;;;;1.15;0.70;;;25.30;99.90;;;;;;5146213;28;20036;-92
2022/07/25 10:23:25;;;;;;;1.00;0.75;;;25.30;99.90;;;;;;5157436;27;20050;-87
2022/07/25 10:26:15;;;;;;;1.15;0.70;;;25.30;99.90;;;;;;5133312;28;20095;-86
2022/07/25 10:28:44;;;;;;;1.02;0.63;;;25.40;99.90;;;;;;5133314;28;20054;-87
2022/07/25 10:31:33;;;;;;;0.75;0.50;;;25.60;99.90;;;;;;5132487;28;20071;-90
2022/07/25 10:34:10;;;;;;;0.93;0.60;;;25.50;99.90;;;;;;5133721;28;20043;-86
2022/07/25 10:36:41;;;;;;;0.60;0.50;;;25.30;99.90;;;;;;5132468;28;20130;-86
2022/07/25 10:39:15;;;;;;;0.70;0.57;;;25.20;99.90;;;;;;5161748;27;20035;-91
2022/07/25 10:41:47;;;;;;;0.50;0.40;;;25.10;99.90;;;;;;5132027;28;20051;-86
2022/07/25 10:44:15;;;;;;;1.25;0.80;;;25.10;99.90;;;;;;5121781;28;20068;-90
2022/07/25 10:46:43;;;;;;;0.40;0.40;;;25.00;99.90;;;;;;5149341;28;20545;-88
2022/07/25 10:49:24;;;;;;;0.73;0.50;;;25.10;99.90;;;;;;5118301;28;20044;-86
2022/07/25 10:51:58;;;;;;;0.30;0.22;;;25.10;99.90;;;;;;5129375;28;20039;-92
2022/07/25 10:54:25;;;;;;;0.20;0.20;;;25.20;99.90;;;;;;5159591;27;20116;-86
2022/07/25 10:56:57;;;;;;;0.20;0.20;;;25.20;99.90;;;;;;5138159;28;20078;-92
2022/07/25 10:59:45;;;;;;;0.98;0.50;;;25.40;99.90;;;;;;5125862;28;20048;-90
2022/07/25 11:02:15;;;;;;;0.38;0.30;;;25.40;99.90;;;;;;5129507;28;20043;-88
2022/07/25 11:04:43;;;;;;;0.52;0.40;;;25.50;99.90;;;;;;5095883;28;20050;-87
2022/07/25 11:07:16;;;;;;;0.30;0.30;;;25.50;99.90;;;;;;5129587;28;20036;-87
2022/07/25 11:09:43;;;;;;;0.20;0.20;;;25.40;99.90;;;;;;5150274;27;20032;-88
2022/07/25 11:12:15;;;;;;;0.38;0.30;;;25.30;99.90;;;;;;5128433;28;20040;-86
2022/07/25 11:14:42;;;;;;;0.52;0.40;;;25.20;99.90;;;;;;5132736;28;20040;-87
2022/07/25 11:17:21;;;;;;;0.20;0.20;;;25.10;99.90;;;;;;5146043;28;20088;-87
2022/07/25 11:19:56;;;;;;;0.22;0.20;;;24.90;99.90;;;;;;5117530;28;20036;-87
2022/07/25 11:22:28;;;;;;;0.10;0.10;;;24.80;99.90;;;;;;5145685;28;20046;-86
2022/07/25 11:24:56;;;;;;;0.22;0.22;;;24.70;99.90;;;;;;5157815;27;20075;-87
2022/07/25 11:27:31;;;;;;;0.20;0.20;;;24.60;99.90;;;;;;5132412;28;20125;-88
2022/07/25 11:30:13;;;;;;;0.10;0.10;;;24.40;99.90;;;;;;5149221;28;20035;-89
2022/07/25 11:32:40;;;;;;;0.30;0.20;;;24.10;99.90;;;;;;5167193;27;20039;-87
2022/07/25 11:35:08;;;;;;;0.10;0.10;;;23.90;99.90;;;;;;5166290;27;20047;-88
2022/07/25 11:37:38;;;;;;;0.20;0.20;;;23.40;99.90;;;;;;5132304;28;20040;-88
2022/07/25 11:40:06;;;;;;;0.03;0.03;;;23.20;99.90;;;;;;5131739;28;20035;-88
2022/07/25 11:42:41;;;;;;;0.10;0.10;;;23.10;99.90;;;;;;5118954;28;20048;-87
2022/07/25 11:45:21;;;;;;;0.10;0.10;;;23.10;99.90;;;;;;5145535;28;20040;-89
2022/07/25 11:48:09;;;;;;;0.10;0.10;;;23.10;99.90;;;;;;5152854;27;20053;-88
2022/07/25 11:50:38;;;;;;;0.03;0.03;;;23.30;99.90;;;;;;5117351;28;20039;-89
2022/07/25 11:53:11;;;;;;;0.28;0.25;;;23.50;99.90;;;;;;5145274;28;20044;-89
2022/07/25 11:55:39;;;;;;;0.20;0.20;;;23.80;99.90;;;;;;5135189;28;20040;-87
2022/07/25 11:58:06;;;;;;;0.10;0.10;;;24.10;99.90;;;;;;5113459;28;20389;-85
2022/07/25 12:00:38;;;;;;;0.20;0.20;;;24.20;99.90;;;;;;5123216;28;20485;-86
2022/07/25 12:03:13;;;;;;;0.20;0.20;;;24.20;99.90;;;;;;5119133;28;20032;-86
2022/07/25 12:05:40;;;;;;;;;;;24.00;99.90;;;;;;5137820;28;20047;-87
2022/07/25 12:08:12;;;;;;;0.75;0.35;;;24.00;99.90;;;;;;5147384;28;19967;-86
2022/07/25 12:10:39;;;;;;;0.35;0.28;;;24.10;99.90;;;;;;5123116;28;20123;-84
2022/07/25 12:13:08;;;;;;;0.35;0.30;;;24.10;99.90;;;;;;5117307;28;20408;-85
2022/07/25 12:15:40;;;;;;;0.55;0.30;;;24.20;99.90;;;;;;5106773;28;20040;-87
2022/07/25 12:18:09;;;;;;;0.20;0.20;;;24.20;99.90;;;;;;5113603;28;20040;-85
2022/07/25 12:20:41;;;;;;;0.77;0.32;;;24.20;99.90;;;;;;5110749;28;20477;-82
2022/07/25 12:23:10;;;;;;;0.20;0.20;;;24.20;99.90;;;;;;5110682;28;20071;-87
2022/07/25 12:25:39;;;;;;;0.30;0.20;;;24.20;99.90;;;;;;5145088;28;20080;-94
2022/07/25 12:28:07;;;;;;;0.32;0.32;;;24.00;99.90;;;;;;5140077;28;20032;-87
2022/07/25 12:30:34;;;;;;;0.22;0.22;;;23.80;99.90;;;;;;5110651;28;20036;-93
2022/07/25 12:33:01;;;;;;;0.52;0.32;;;23.90;99.90;;;;;;5110380;28;20043;-86
2022/07/25 12:35:28;;;;;;;0.22;0.22;;;23.90;99.90;;;;;;5110588;28;20128;-86
2022/07/25 12:37:55;;;;;;;0.50;0.30;;;24.00;99.90;;;;;;5094049;28;20044;-89
2022/07/25 12:40:22;;;;;;;0.70;0.40;;;24.00;99.90;;;;;;5110721;28;20048;-86
2022/07/25 12:42:49;;;;;;;0.22;0.22;;;24.10;99.90;;;;;;5094211;28;20051;-87
2022/07/25 12:45:16;;;;;;;0.20;0.20;;;24.20;99.90;;;;;;5111044;28;20044;-90
2022/07/25 12:47:45;;;;;;;1.45;0.25;;;24.20;99.90;;;;;;5110591;28;20094;-87
2022/07/25 12:50:13;;;;;;;0.20;0.20;;;24.00;99.90;;;;;;5144728;28;20039;-89
2022/07/25 12:52:41;;;;;;;0.30;0.30;;;23.80;99.90;;;;;;5147709;28;20555;-88
2022/07/25 12:55:10;;;;;;;0.52;0.30;;;23.70;99.90;;;;;;5148142;28;20043;-87